Time;durP1;ratioP1;P1;durP2;ratioP2;P2;SDS_P1;SDS_P2;PMS_P1;PMS_P2;Temp;Humidity;BMP_temperature;BMP_pressure;BME280_temperature;BME280_humidity;BME280_pressure;Samples;Min_cycle;Max_cycle;Signal;HPM_P1;HPM_P2
2022/05/05 00:02:14;;;;;;;14.13;7.05;;;20.00;77.80;;;;;;5088104;28;20027;-75
2022/05/05 00:04:41;;;;;;;13.18;6.85;;;20.00;77.80;;;;;;5097622;28;20035;-76
2022/05/05 00:07:07;;;;;;;12.75;6.95;;;20.00;77.90;;;;;;5093100;28;20024;-82
2022/05/05 00:09:34;;;;;;;8.95;6.20;;;20.00;77.90;;;;;;5088056;28;20062;-82
2022/05/05 00:14:45;;;;;;;12.48;7.53;;;20.00;77.90;;;;;;5095562;28;20415;-85
2022/05/05 00:17:12;;;;;;;12.77;7.60;;;20.00;77.90;;;;;;5090698;28;20561;-84
2022/05/05 00:19:41;;;;;;;13.32;8.95;;;20.00;77.90;;;;;;5097362;28;20296;-85
2022/05/05 00:22:09;;;;;;;16.30;7.68;;;19.90;77.80;;;;;;5090090;28;20484;-78
2022/05/05 00:24:38;;;;;;;18.98;8.35;;;19.90;77.80;;;;;;5092618;28;20032;-83
2022/05/05 00:27:06;;;;;;;13.50;7.82;;;19.90;77.80;;;;;;5095270;28;20012;-83
2022/05/05 00:29:32;;;;;;;19.65;7.30;;;19.90;77.70;;;;;;5092562;28;20028;-77
2022/05/05 00:31:59;;;;;;;12.55;6.97;;;19.90;77.70;;;;;;5090825;28;20032;-79
2022/05/05 00:34:25;;;;;;;14.25;6.53;;;19.80;77.60;;;;;;5089498;28;20042;-80
2022/05/05 00:36:52;;;;;;;13.63;7.95;;;19.80;77.40;;;;;;5090048;28;20032;-81
2022/05/05 00:39:19;;;;;;;13.05;6.88;;;19.80;77.20;;;;;;5097777;28;20024;-80
2022/05/05 00:41:47;;;;;;;9.27;5.78;;;19.80;77.70;;;;;;5089201;28;20070;-73
2022/05/05 00:44:15;;;;;;;12.70;6.38;;;19.80;76.90;;;;;;5091561;28;20391;-76
2022/05/05 00:46:50;;;;;;;9.90;6.85;;;19.80;76.70;;;;;;5097347;28;20392;-71
2022/05/05 00:49:16;;;;;;;13.55;6.20;;;19.70;76.50;;;;;;5093521;28;20085;-72
2022/05/05 00:51:43;;;;;;;10.85;6.85;;;19.70;76.30;;;;;;5096121;28;20044;-80
2022/05/05 00:54:10;;;;;;;11.40;6.38;;;19.70;76.30;;;;;;5091920;28;20028;-80
2022/05/05 00:56:38;;;;;;;14.23;6.63;;;19.70;76.30;;;;;;5090956;28;20027;-76
2022/05/05 00:59:05;;;;;;;9.85;6.60;;;19.70;76.30;;;;;;5086320;28;20426;-70
2022/05/05 01:01:33;;;;;;;10.38;5.85;;;19.60;76.10;;;;;;5093912;28;20028;-73
2022/05/05 01:04:00;;;;;;;8.23;6.07;;;19.60;76.00;;;;;;5088686;28;20478;-76
2022/05/05 01:06:28;;;;;;;14.15;6.95;;;19.60;75.90;;;;;;5096575;28;20494;-79
2022/05/05 01:08:55;;;;;;;11.25;6.22;;;19.60;75.70;;;;;;5094189;28;20035;-72
2022/05/05 01:11:21;;;;;;;9.05;5.93;;;19.50;75.40;;;;;;5089753;28;20058;-79
2022/05/05 01:13:48;;;;;;;12.05;6.88;;;19.50;75.20;;;;;;5084210;28;20031;-81
2022/05/05 01:16:15;;;;;;;9.40;5.60;;;19.50;75.10;;;;;;5092005;28;20027;-77
2022/05/05 01:18:42;;;;;;;12.70;6.95;;;19.50;75.50;;;;;;5082824;28;20038;-71
2022/05/05 01:21:12;;;;;;;9.13;5.43;;;19.50;74.80;;;;;;5097815;28;20479;-83
2022/05/05 01:23:39;;;;;;;9.13;6.30;;;19.50;74.70;;;;;;5087309;28;20450;-80
2022/05/05 01:28:52;;;;;;;9.63;6.43;;;19.40;74.40;;;;;;5091952;28;20089;-80
2022/05/05 01:31:19;;;;;;;7.88;5.53;;;19.40;74.50;;;;;;5092481;28;20038;-82
2022/05/05 01:33:46;;;;;;;11.55;4.85;;;19.40;74.40;;;;;;5086068;28;20066;-80
2022/05/05 01:36:12;;;;;;;9.85;4.50;;;19.40;74.20;;;;;;5092434;28;20475;-82
2022/05/05 01:38:44;;;;;;;8.90;5.80;;;19.40;74.10;;;;;;5090896;28;20478;-76
2022/05/05 01:41:15;;;;;;;9.45;5.03;;;19.30;74.00;;;;;;5090719;28;20099;-74
2022/05/05 01:43:45;;;;;;;9.18;5.13;;;19.30;73.80;;;;;;5088884;28;20115;-76
2022/05/05 01:46:11;;;;;;;9.45;5.25;;;19.30;73.70;;;;;;5097823;28;20024;-83
2022/05/05 01:48:38;;;;;;;9.07;5.63;;;19.30;73.70;;;;;;5090633;28;20482;-76
2022/05/05 01:51:05;;;;;;;10.98;5.20;;;19.30;73.60;;;;;;5092602;28;20032;-79
2022/05/05 01:53:36;;;;;;;13.73;5.95;;;19.30;73.20;;;;;;5084311;28;20094;-78
2022/05/05 01:56:13;;;;;;;12.55;7.10;;;19.20;73.40;;;;;;5096189;28;20105;-79
2022/05/05 01:58:44;;;;;;;16.13;8.27;;;19.20;73.40;;;;;;5091288;28;20031;-79
2022/05/05 02:01:12;;;;;;;16.50;10.52;;;19.20;73.60;;;;;;5093091;28;20540;-80
2022/05/05 02:03:39;;;;;;;19.70;9.85;;;19.20;73.90;;;;;;5083050;28;20038;-82
2022/05/05 02:06:07;;;;;;;18.08;9.80;;;19.20;74.10;;;;;;5096125;28;20032;-79
2022/05/05 02:08:33;;;;;;;21.05;11.23;;;19.20;74.20;;;;;;5092155;28;20032;-81
2022/05/05 02:11:00;;;;;;;23.58;13.32;;;19.20;74.40;;;;;;5094282;28;20036;-82
2022/05/05 02:13:27;;;;;;;19.88;12.27;;;19.20;75.00;;;;;;5085661;28;20032;-81
2022/05/05 02:15:53;;;;;;;21.00;11.85;;;19.10;75.50;;;;;;5089296;28;20661;-83
2022/05/05 02:18:20;;;;;;;21.23;13.50;;;19.10;75.90;;;;;;5095756;28;20560;-77
2022/05/05 02:20:46;;;;;;;27.58;15.15;;;19.10;76.40;;;;;;5089069;28;20082;-81
2022/05/05 02:23:13;;;;;;;22.65;14.77;;;19.10;76.60;;;;;;5085499;28;20045;-83
2022/05/05 02:25:39;;;;;;;22.27;15.70;;;19.10;76.90;;;;;;5096318;28;20069;-81
2022/05/05 02:28:06;;;;;;;23.60;17.17;;;19.10;77.10;;;;;;5089957;28;20024;-80
2022/05/05 02:30:33;;;;;;;25.50;17.08;;;19.10;77.30;;;;;;5090620;28;20028;-82
2022/05/05 02:32:59;;;;;;;26.25;16.30;;;19.10;77.50;;;;;;5092797;28;20072;-80
2022/05/05 02:35:26;;;;;;;23.30;15.07;;;19.10;77.60;;;;;;5093153;28;20390;-79
2022/05/05 02:40:38;;;;;;;;;;;19.10;77.80;;;;;;5097188;28;20751;-81
2022/05/05 02:43:04;;;;;;;24.55;14.27;;;19.10;77.90;;;;;;5093575;28;19908;-85
2022/05/05 02:45:31;;;;;;;15.77;10.57;;;19.10;78.10;;;;;;5101251;28;20032;-81
2022/05/05 02:47:59;;;;;;;11.90;8.82;;;19.10;78.10;;;;;;5101627;28;20043;-76
2022/05/05 02:50:25;;;;;;;10.38;6.60;;;19.10;78.10;;;;;;5093259;28;20040;-77
2022/05/05 02:52:56;;;;;;;9.75;6.75;;;19.10;78.00;;;;;;5094477;28;20153;-77
2022/05/05 02:55:23;;;;;;;11.32;7.13;;;19.10;77.90;;;;;;5091652;28;20029;-77
2022/05/05 02:57:51;;;;;;;12.00;7.70;;;19.10;77.90;;;;;;5095889;28;20032;-79
2022/05/05 03:00:18;;;;;;;14.32;8.95;;;19.10;77.90;;;;;;5095718;28;20028;-82
2022/05/05 03:02:45;;;;;;;16.95;8.82;;;19.10;78.10;;;;;;5096962;28;20023;-80
2022/05/05 03:05:16;;;;;;;14.60;9.38;;;19.10;78.10;;;;;;5104174;28;20036;-81
2022/05/05 03:07:43;;;;;;;13.27;9.40;;;19.10;78.20;;;;;;5092372;28;20025;-80
2022/05/05 03:10:11;;;;;;;15.88;10.30;;;19.10;78.30;;;;;;5091063;28;20036;-81
2022/05/05 03:12:38;;;;;;;16.33;9.43;;;19.10;78.40;;;;;;5091984;28;20075;-81
2022/05/05 03:15:06;;;;;;;17.75;11.57;;;19.10;78.50;;;;;;5096974;28;20158;-84
2022/05/05 03:17:33;;;;;;;18.45;10.52;;;19.10;78.50;;;;;;5099118;28;20040;-83
2022/05/05 03:19:59;;;;;;;19.83;12.70;;;19.10;78.60;;;;;;5101281;28;20073;-77
2022/05/05 03:22:26;;;;;;;20.83;12.48;;;19.10;78.70;;;;;;5095162;28;20518;-82
2022/05/05 03:24:52;;;;;;;29.80;13.70;;;19.10;78.80;;;;;;5090503;28;20656;-78
2022/05/05 03:27:19;;;;;;;30.38;14.27;;;19.00;78.90;;;;;;5096388;28;20189;-79
2022/05/05 03:29:45;;;;;;;24.88;12.05;;;19.10;79.20;;;;;;5096150;28;20570;-82
2022/05/05 03:32:13;;;;;;;19.50;12.27;;;19.00;79.40;;;;;;5095391;28;20105;-80
2022/05/05 03:34:39;;;;;;;24.25;12.35;;;19.00;79.40;;;;;;5090680;28;20073;-77
2022/05/05 03:37:06;;;;;;;19.70;10.40;;;19.00;79.40;;;;;;5092722;28;20035;-79
2022/05/05 03:39:32;;;;;;;17.95;9.18;;;19.00;79.40;;;;;;5095240;28;20520;-77
2022/05/05 03:41:59;;;;;;;12.15;8.43;;;19.00;79.30;;;;;;5094787;28;20016;-81
2022/05/05 03:44:25;;;;;;;13.90;9.85;;;19.00;79.10;;;;;;5090155;28;20038;-80
2022/05/05 03:46:52;;;;;;;17.02;9.43;;;19.00;79.10;;;;;;5092408;28;20540;-78
2022/05/05 03:49:18;;;;;;;13.43;9.05;;;19.00;79.10;;;;;;5094388;28;20016;-73
2022/05/05 03:51:55;;;;;;;13.40;10.15;;;19.00;79.00;;;;;;5097420;28;20024;-80
2022/05/05 03:54:24;;;;;;;14.23;8.93;;;19.00;79.00;;;;;;5086607;28;20032;-79
2022/05/05 03:56:50;;;;;;;14.15;9.23;;;19.00;79.10;;;;;;5091919;28;20117;-78
2022/05/05 03:59:17;;;;;;;13.40;8.63;;;19.00;79.10;;;;;;5090983;28;20024;-79
2022/05/05 04:01:43;;;;;;;9.77;7.57;;;19.00;79.20;;;;;;5091343;28;20019;-79
2022/05/05 04:04:10;;;;;;;8.88;6.63;;;19.00;79.30;;;;;;5096709;28;20020;-76
2022/05/05 04:06:36;;;;;;;9.25;6.88;;;19.00;79.30;;;;;;5093474;28;20028;-78
2022/05/05 04:09:05;;;;;;;11.18;6.97;;;19.00;79.30;;;;;;5096572;28;20694;-81
2022/05/05 04:11:35;;;;;;;12.98;8.65;;;18.90;79.40;;;;;;5092923;28;20039;-88
2022/05/05 04:14:02;;;;;;;20.17;14.57;;;19.00;79.40;;;;;;5091971;28;20123;-72
2022/05/05 04:16:33;;;;;;;23.50;15.93;;;18.90;79.70;;;;;;5099669;28;20036;-71
2022/05/05 04:19:03;;;;;;;28.30;20.92;;;18.90;79.80;;;;;;5091337;28;20035;-77
2022/05/05 04:21:30;;;;;;;22.58;17.92;;;18.90;79.90;;;;;;5091531;28;20032;-73
2022/05/05 04:23:57;;;;;;;35.53;20.65;;;18.90;79.90;;;;;;5093853;28;20063;-77
2022/05/05 04:26:24;;;;;;;35.50;21.35;;;18.90;79.80;;;;;;5097494;28;20074;-69
2022/05/05 04:28:52;;;;;;;50.20;25.45;;;18.90;79.80;;;;;;5100303;28;20103;-81
2022/05/05 04:31:19;;;;;;;41.33;26.85;;;18.90;79.70;;;;;;5088208;28;20016;-82
2022/05/05 04:33:46;;;;;;;39.00;28.73;;;18.90;79.70;;;;;;5093660;28;20551;-77
2022/05/05 04:36:16;;;;;;;26.30;19.13;;;18.90;79.70;;;;;;5096930;28;20592;-78
2022/05/05 04:38:43;;;;;;;20.65;14.50;;;18.90;79.70;;;;;;5092269;28;20077;-89
2022/05/05 04:41:10;;;;;;;16.20;11.57;;;18.90;79.60;;;;;;5090451;28;20085;-83
2022/05/05 04:43:37;;;;;;;20.77;10.05;;;18.90;79.60;;;;;;5095897;28;20024;-83
2022/05/05 04:46:04;;;;;;;13.52;9.77;;;18.80;79.50;;;;;;5097956;28;20040;-81
2022/05/05 04:48:31;;;;;;;9.18;7.20;;;18.80;79.60;;;;;;5095986;28;20469;-84
2022/05/05 04:51:04;;;;;;;11.32;8.02;;;18.80;79.70;;;;;;5094600;28;20036;-74
2022/05/05 04:53:33;;;;;;;14.38;9.02;;;18.80;79.80;;;;;;5092929;28;20470;-74
2022/05/05 04:55:59;;;;;;;14.73;9.88;;;18.80;79.80;;;;;;5086400;28;20032;-85
2022/05/05 04:58:26;;;;;;;14.23;10.27;;;18.80;79.80;;;;;;5091132;28;20024;-82
2022/05/05 05:00:53;;;;;;;11.75;9.27;;;18.80;79.90;;;;;;5098995;28;20032;-85
2022/05/05 05:03:39;;;;;;;16.50;11.52;;;18.80;79.80;;;;;;5106167;28;20554;-85
2022/05/05 05:06:08;;;;;;;17.55;12.30;;;18.80;79.80;;;;;;5091094;28;20054;-83
2022/05/05 05:08:35;;;;;;;19.65;13.90;;;18.80;80.50;;;;;;5098969;28;20028;-77
2022/05/05 05:11:06;;;;;;;20.48;14.80;;;18.80;79.80;;;;;;5101805;28;20019;-73
2022/05/05 05:13:33;;;;;;;26.27;15.63;;;18.80;79.90;;;;;;5100228;28;20044;-75
2022/05/05 05:15:59;;;;;;;25.17;16.60;;;18.70;79.80;;;;;;5086540;28;20463;-74
2022/05/05 05:18:25;;;;;;;32.97;19.92;;;18.80;79.90;;;;;;5096381;28;20115;-74
2022/05/05 05:20:52;;;;;;;33.88;20.52;;;18.70;80.00;;;;;;5092199;28;20099;-77
2022/05/05 05:23:19;;;;;;;29.65;19.00;;;18.70;80.10;;;;;;5094538;28;20048;-75
2022/05/05 05:25:45;;;;;;;32.55;21.65;;;18.70;80.10;;;;;;5090608;28;20122;-72
2022/05/05 05:28:14;;;;;;;32.15;20.10;;;18.70;80.10;;;;;;5091930;28;20052;-68
2022/05/05 05:30:41;;;;;;;24.85;17.15;;;18.70;80.10;;;;;;5099650;28;20028;-73
2022/05/05 05:33:08;;;;;;;20.70;15.45;;;18.70;80.10;;;;;;5088486;28;20426;-78
2022/05/05 05:35:34;;;;;;;31.05;16.40;;;18.70;80.00;;;;;;5087582;28;20020;-70
2022/05/05 05:38:01;;;;;;;33.38;16.02;;;18.70;80.00;;;;;;5091274;28;20024;-78
2022/05/05 05:40:28;;;;;;;25.92;14.18;;;18.70;80.10;;;;;;5094161;28;20059;-77
2022/05/05 05:42:55;;;;;;;16.33;12.63;;;18.60;80.00;;;;;;5094837;28;20054;-68
2022/05/05 05:45:22;;;;;;;16.48;10.73;;;18.70;80.20;;;;;;5092894;28;20669;-78
2022/05/05 05:47:48;;;;;;;13.63;10.73;;;18.70;80.20;;;;;;5095065;28;20494;-74
2022/05/05 05:50:14;;;;;;;15.60;10.07;;;18.70;80.30;;;;;;5097271;28;20020;-78
2022/05/05 05:52:41;;;;;;;15.32;10.82;;;18.70;80.30;;;;;;5090270;28;20074;-70
2022/05/05 05:55:08;;;;;;;13.07;9.65;;;18.70;80.40;;;;;;5093779;28;20024;-68
2022/05/05 05:57:34;;;;;;;12.05;8.73;;;18.60;80.30;;;;;;5091768;28;20059;-70
2022/05/05 06:00:01;;;;;;;12.57;8.93;;;18.70;80.40;;;;;;5096775;28;20024;-67
2022/05/05 06:05:12;;;;;;;11.27;8.73;;;18.60;80.20;;;;;;5091110;28;20461;-81
2022/05/05 06:07:39;;;;;;;10.55;8.70;;;18.60;80.10;;;;;;5088761;28;20326;-77
2022/05/05 06:10:06;;;;;;;8.43;7.57;;;18.60;80.10;;;;;;5093846;28;20552;-72
2022/05/05 06:12:32;;;;;;;9.90;8.38;;;18.60;80.00;;;;;;5087209;28;20043;-76
2022/05/05 06:15:01;;;;;;;11.45;8.48;;;18.70;80.00;;;;;;5088800;28;20020;-86
2022/05/05 06:17:28;;;;;;;10.70;8.38;;;18.60;79.80;;;;;;5092385;28;20024;-70
2022/05/05 06:19:55;;;;;;;11.25;8.65;;;18.70;79.80;;;;;;5092653;28;20684;-73
2022/05/05 06:22:21;;;;;;;10.00;9.00;;;18.60;79.80;;;;;;5092906;28;20087;-68
2022/05/05 06:24:47;;;;;;;19.48;9.45;;;18.60;79.90;;;;;;5090923;28;20036;-70
2022/05/05 06:27:14;;;;;;;14.45;9.30;;;18.60;79.90;;;;;;5088331;28;20022;-76
2022/05/05 06:29:40;;;;;;;11.90;7.95;;;18.60;79.90;;;;;;5090915;28;20450;-69
2022/05/05 06:32:07;;;;;;;11.18;8.07;;;18.60;80.00;;;;;;5094995;28;20098;-71
2022/05/05 06:34:34;;;;;;;8.27;7.28;;;18.70;80.10;;;;;;5091588;28;20027;-77
2022/05/05 06:37:00;;;;;;;7.43;6.65;;;18.70;80.10;;;;;;5088799;28;20035;-71
2022/05/05 06:39:26;;;;;;;8.93;6.75;;;18.70;80.00;;;;;;5092081;28;20028;-77
2022/05/05 06:41:53;;;;;;;7.45;6.32;;;18.70;79.80;;;;;;5094074;28;20052;-75
2022/05/05 06:44:19;;;;;;;7.90;5.93;;;18.70;79.70;;;;;;5098270;28;20032;-67
2022/05/05 06:46:46;;;;;;;8.15;6.90;;;18.70;79.50;;;;;;5096941;28;20024;-67
2022/05/05 06:49:12;;;;;;;11.63;6.60;;;18.70;79.30;;;;;;5093598;28;20024;-67
2022/05/05 06:51:39;;;;;;;10.45;7.90;;;18.70;79.30;;;;;;5075893;28;20038;-73
2022/05/05 06:54:05;;;;;;;11.32;8.55;;;18.70;79.20;;;;;;5095491;28;20074;-68
2022/05/05 06:56:32;;;;;;;13.55;8.15;;;18.70;79.30;;;;;;5094591;28;20029;-83
2022/05/05 06:58:58;;;;;;;11.88;7.63;;;18.70;79.30;;;;;;5089947;28;20816;-78
2022/05/05 07:06:54;;;;;;;9.33;6.90;;;18.70;79.30;;;;;;5091648;28;20039;-78
2022/05/05 07:12:05;;;;;;;8.00;6.75;;;18.70;79.40;;;;;;5088366;28;20047;-81
2022/05/05 07:14:33;;;;;;;13.70;8.48;;;18.70;79.50;;;;;;5096660;28;20106;-81
2022/05/05 07:16:59;;;;;;;12.25;8.52;;;18.70;79.60;;;;;;5091818;28;20048;-74
2022/05/05 07:19:26;;;;;;;13.02;9.07;;;18.80;79.70;;;;;;5096796;28;20043;-69
2022/05/05 07:21:52;;;;;;;19.92;11.40;;;18.80;79.70;;;;;;5099803;28;20078;-79
2022/05/05 07:24:18;;;;;;;19.25;11.05;;;18.70;79.70;;;;;;5095569;28;20043;-68
2022/05/05 07:26:45;;;;;;;19.40;13.57;;;18.80;79.80;;;;;;5092533;28;20361;-71
2022/05/05 07:29:11;;;;;;;20.33;12.70;;;18.80;79.80;;;;;;5098189;28;20035;-81
2022/05/05 07:31:38;;;;;;;25.92;13.38;;;18.90;79.90;;;;;;5098919;28;20533;-76
2022/05/05 07:34:04;;;;;;;23.77;13.02;;;18.90;79.90;;;;;;5094367;28;20032;-81
2022/05/05 07:36:31;;;;;;;22.23;12.52;;;18.90;79.80;;;;;;5104284;28;20040;-84
2022/05/05 07:38:57;;;;;;;24.70;14.48;;;18.90;79.70;;;;;;5090383;28;20020;-77
2022/05/05 07:41:24;;;;;;;24.15;14.02;;;18.90;79.50;;;;;;5098551;28;20110;-74
2022/05/05 07:43:50;;;;;;;23.60;14.25;;;18.90;79.50;;;;;;5089390;28;20023;-79
2022/05/05 07:46:20;;;;;;;26.83;14.73;;;19.00;79.40;;;;;;5092230;28;20028;-78
2022/05/05 07:48:46;;;;;;;22.90;13.48;;;19.00;79.10;;;;;;5096826;28;20085;-81
2022/05/05 07:51:13;;;;;;;31.60;15.10;;;19.00;78.90;;;;;;5103788;28;20066;-78
2022/05/05 07:53:39;;;;;;;28.33;16.73;;;19.00;78.70;;;;;;5093540;28;20050;-83
2022/05/05 07:56:06;;;;;;;39.60;15.02;;;19.00;78.50;;;;;;5096641;28;20025;-76
2022/05/05 07:58:34;;;;;;;26.85;13.80;;;19.00;78.30;;;;;;5094785;28;20382;-81
2022/05/05 08:01:00;;;;;;;28.58;11.65;;;19.10;78.10;;;;;;5094648;28;20070;-84
2022/05/05 08:03:27;;;;;;;35.38;13.82;;;19.10;77.90;;;;;;5093458;28;20028;-77
2022/05/05 08:05:53;;;;;;;23.65;12.70;;;19.10;77.70;;;;;;5104349;28;20072;-82
2022/05/05 08:08:20;;;;;;;28.45;12.63;;;19.20;77.40;;;;;;5099755;28;20031;-79
2022/05/05 08:10:47;;;;;;;26.35;11.77;;;19.20;77.70;;;;;;5098179;28;20111;-75
2022/05/05 08:13:13;;;;;;;25.13;12.35;;;19.20;76.90;;;;;;5091287;28;20439;-71
2022/05/05 08:15:40;;;;;;;23.40;12.48;;;19.20;76.70;;;;;;5098113;28;20020;-74
2022/05/05 08:18:07;;;;;;;22.77;11.98;;;19.30;76.60;;;;;;5092394;28;20024;-76
2022/05/05 08:20:33;;;;;;;17.38;10.50;;;19.30;76.50;;;;;;5096371;28;20028;-72
2022/05/05 08:23:00;;;;;;;21.00;10.77;;;19.30;76.40;;;;;;5103649;28;20184;-72
2022/05/05 08:28:29;;;;;;;23.48;12.07;;;19.40;76.50;;;;;;5087774;28;20031;-79
2022/05/05 08:30:59;;;;;;;27.42;12.80;;;19.50;76.60;;;;;;5092936;28;20032;-70
2022/05/05 08:33:29;;;;;;;30.17;13.35;;;19.50;76.60;;;;;;5097979;28;20040;-77
2022/05/05 08:35:57;;;;;;;27.17;12.70;;;19.50;76.60;;;;;;5095346;28;20039;-75
2022/05/05 08:38:24;;;;;;;45.13;15.35;;;19.50;76.60;;;;;;5095836;28;20051;-82
2022/05/05 08:40:51;;;;;;;41.53;12.05;;;19.60;76.60;;;;;;5093871;28;20070;-67
2022/05/05 08:43:18;;;;;;;23.50;12.75;;;19.60;76.60;;;;;;5092737;28;20027;-68
2022/05/05 08:45:48;;;;;;;31.30;13.40;;;19.70;76.50;;;;;;5094015;28;20077;-92
2022/05/05 08:48:16;;;;;;;30.60;11.73;;;19.70;76.30;;;;;;5090508;28;20527;-89
2022/05/05 08:50:47;;;;;;;28.13;11.05;;;19.70;75.90;;;;;;5096340;28;20040;-82
2022/05/05 08:53:16;;;;;;;19.80;10.15;;;19.70;75.70;;;;;;5095817;28;20039;-82
2022/05/05 08:55:45;;;;;;;29.08;10.93;;;19.80;75.40;;;;;;5108255;28;20364;-81
2022/05/05 08:58:12;;;;;;;21.05;9.80;;;19.80;75.20;;;;;;5100105;28;20111;-76
2022/05/05 09:00:38;;;;;;;17.35;12.52;;;19.80;75.10;;;;;;5099991;28;20032;-74
2022/05/05 09:03:08;;;;;;;15.82;10.30;;;19.90;74.80;;;;;;5111770;28;20019;-84
2022/05/05 09:05:44;;;;;;;20.85;10.93;;;19.90;74.60;;;;;;5098972;28;20491;-69
2022/05/05 09:08:26;;;;;;;22.27;11.48;;;20.00;74.60;;;;;;5096770;28;20031;-77
2022/05/05 09:10:54;;;;;;;20.85;10.73;;;20.00;74.50;;;;;;5101141;28;20058;-71
2022/05/05 09:13:26;;;;;;;24.20;10.63;;;20.00;74.20;;;;;;5100963;28;20040;-77
2022/05/05 09:15:53;;;;;;;16.90;10.20;;;20.00;74.20;;;;;;5092090;28;20359;-79
2022/05/05 09:18:21;;;;;;;16.48;9.85;;;20.10;74.10;;;;;;5095021;28;20023;-85
2022/05/05 09:20:48;;;;;;;16.70;9.70;;;20.10;74.00;;;;;;5094438;28;20027;-84
2022/05/05 09:23:29;;;;;;;24.48;10.50;;;20.20;74.00;;;;;;5090015;28;20079;-82
2022/05/05 09:25:56;;;;;;;23.20;10.93;;;20.20;73.80;;;;;;5097867;28;20031;-84
2022/05/05 09:28:35;;;;;;;18.40;8.80;;;20.30;73.70;;;;;;5100432;28;20012;-76
2022/05/05 09:31:07;;;;;;;13.90;9.30;;;20.30;73.50;;;;;;5097935;28;20372;-85
2022/05/05 09:33:37;;;;;;;19.02;11.55;;;20.40;73.30;;;;;;5092750;28;20032;-80
2022/05/05 09:36:05;;;;;;;35.40;13.13;;;20.40;73.20;;;;;;5092514;28;20109;-80
2022/05/05 09:39:10;;;;;;;31.17;12.52;;;20.50;73.20;;;;;;5098697;28;20031;-75
2022/05/05 09:41:48;;;;;;;36.22;13.10;;;20.50;73.30;;;;;;5052164;28;20116;-80
2022/05/05 09:44:21;;;;;;;38.88;12.68;;;20.50;73.10;;;;;;5086181;28;20055;-76
2022/05/05 09:46:48;;;;;;;34.15;15.20;;;20.60;73.00;;;;;;5092641;28;20338;-82
2022/05/05 09:49:17;;;;;;;40.03;13.25;;;20.70;72.80;;;;;;5098486;28;20032;-80
2022/05/05 09:51:44;;;;;;;34.00;12.93;;;20.70;72.50;;;;;;5092636;28;20593;-74
2022/05/05 09:59:51;;;;;;;42.25;15.20;;;20.90;72.30;;;;;;5092881;28;20062;-83
2022/05/05 10:05:15;;;;;;;31.35;10.77;;;21.00;71.80;;;;;;5089421;28;20490;-78
2022/05/05 10:07:44;;;;;;;24.30;10.30;;;21.00;71.40;;;;;;5098563;28;20032;-82
2022/05/05 10:10:16;;;;;;;21.33;8.57;;;21.00;70.80;;;;;;5095392;28;20113;-79
2022/05/05 10:12:43;;;;;;;24.05;10.82;;;21.00;70.00;;;;;;5081837;28;20063;-85
2022/05/05 10:15:12;;;;;;;19.17;9.38;;;21.10;69.20;;;;;;5100207;28;20382;-72
2022/05/05 10:17:39;;;;;;;18.33;7.82;;;21.10;68.80;;;;;;5099210;28;20479;-79
2022/05/05 10:20:12;;;;;;;23.08;8.40;;;21.10;69.00;;;;;;5091558;28;20039;-76
2022/05/05 10:23:07;;;;;;;25.35;9.70;;;21.20;68.90;;;;;;5091294;28;20052;-85
2022/05/05 10:25:36;;;;;;;23.70;8.88;;;21.20;69.30;;;;;;5088421;28;20016;-77
2022/05/05 10:28:03;;;;;;;24.73;9.52;;;21.20;67.70;;;;;;5096550;28;20025;-86
2022/05/05 10:30:34;;;;;;;18.17;8.27;;;21.20;67.20;;;;;;5095339;28;20104;-78
2022/05/05 10:33:02;;;;;;;19.35;7.97;;;21.20;66.80;;;;;;5103805;28;20028;-85
2022/05/05 10:35:38;;;;;;;21.23;8.05;;;21.20;66.50;;;;;;5095489;28;20016;-83
2022/05/05 10:38:24;;;;;;;21.15;6.63;;;21.30;66.30;;;;;;5092830;28;20475;-74
2022/05/05 10:40:51;;;;;;;10.98;6.43;;;21.30;66.40;;;;;;5082869;28;20039;-83
2022/05/05 10:43:33;;;;;;;10.63;7.00;;;21.30;66.30;;;;;;5092744;28;20020;-83
2022/05/05 10:46:00;;;;;;;18.27;6.82;;;21.30;66.40;;;;;;5076915;28;20453;-86
2022/05/05 10:48:30;;;;;;;13.75;6.68;;;21.30;66.20;;;;;;5093321;28;20032;-71
2022/05/05 10:51:06;;;;;;;13.07;6.72;;;21.30;66.30;;;;;;5087162;28;20624;-85
2022/05/05 10:53:34;;;;;;;20.52;8.00;;;21.40;66.20;;;;;;5090559;28;20032;-88
2022/05/05 10:56:04;;;;;;;17.42;7.57;;;21.50;66.30;;;;;;5102373;28;20036;-76
2022/05/05 10:58:56;;;;;;;19.10;7.80;;;21.50;65.90;;;;;;5102487;28;20028;-82
2022/05/05 11:01:23;;;;;;;15.07;6.80;;;21.50;66.10;;;;;;5093548;28;20024;-84
2022/05/05 11:04:20;;;;;;;14.43;6.78;;;21.50;66.40;;;;;;5097249;28;20058;-73
2022/05/05 11:06:50;;;;;;;18.80;7.10;;;21.60;66.50;;;;;;5096867;28;20467;-81
2022/05/05 11:09:34;;;;;;;20.65;7.00;;;21.60;66.30;;;;;;5094742;28;20082;-83
2022/05/05 11:12:17;;;;;;;14.68;6.25;;;21.60;66.30;;;;;;5094248;28;20028;-73
2022/05/05 11:23:47;;;;;;;13.05;7.03;;;21.80;65.20;;;;;;5101482;28;20079;-88
2022/05/05 11:26:18;;;;;;;12.95;8.00;;;21.80;65.00;;;;;;5096532;28;20066;-88
2022/05/05 11:28:45;;;;;;;10.52;5.63;;;21.80;64.80;;;;;;5091924;28;20024;-74
2022/05/05 11:31:26;;;;;;;10.93;6.20;;;21.90;64.70;;;;;;5098591;28;20421;-83
2022/05/05 11:33:56;;;;;;;12.02;7.10;;;21.90;64.40;;;;;;5098660;28;20436;-78
2022/05/05 11:36:33;;;;;;;12.13;5.85;;;22.00;64.20;;;;;;5084481;28;20444;-81
2022/05/05 11:39:00;;;;;;;13.20;6.38;;;22.00;64.40;;;;;;5100332;28;20032;-84
2022/05/05 11:41:29;;;;;;;18.42;7.05;;;22.00;64.20;;;;;;5093536;28;20678;-79
2022/05/05 11:46:40;;;;;;;19.40;8.73;;;22.10;63.90;;;;;;5096204;28;20500;-83
2022/05/05 11:49:08;;;;;;;12.77;7.00;;;22.00;63.70;;;;;;5097805;28;20371;-81
2022/05/05 11:51:36;;;;;;;13.15;6.95;;;22.00;63.70;;;;;;5099700;28;20509;-93
2022/05/05 11:54:07;;;;;;;17.42;7.75;;;22.00;63.90;;;;;;5108778;28;20032;-91
2022/05/05 11:56:36;;;;;;;13.88;7.80;;;22.00;63.90;;;;;;5096041;28;20032;-79
2022/05/05 12:02:06;;;;;;;17.23;8.88;;;22.00;63.80;;;;;;5094709;28;20046;-69
2022/05/05 12:04:37;;;;;;;16.90;8.70;;;22.00;63.70;;;;;;5096994;28;20031;-88
2022/05/05 12:07:05;;;;;;;27.27;11.07;;;22.00;63.70;;;;;;5106649;28;20023;-89
2022/05/05 12:09:32;;;;;;;15.02;8.68;;;22.10;63.80;;;;;;5108872;28;20095;-84
2022/05/05 12:12:12;;;;;;;12.45;6.57;;;22.10;63.60;;;;;;5091347;28;20024;-89
2022/05/05 12:14:47;;;;;;;16.10;8.82;;;22.20;63.50;;;;;;5101475;28;20474;-85
2022/05/05 12:17:21;;;;;;;21.55;8.90;;;22.20;63.50;;;;;;5089843;28;20368;-84
2022/05/05 12:19:52;;;;;;;22.85;10.30;;;22.20;63.60;;;;;;5099049;28;20028;-85
2022/05/05 12:22:27;;;;;;;28.35;10.10;;;22.30;63.50;;;;;;5098035;28;20028;-84
2022/05/05 12:24:54;;;;;;;19.38;8.00;;;22.30;63.50;;;;;;5091062;28;20099;-84
2022/05/05 12:27:27;;;;;;;13.15;6.30;;;22.30;63.90;;;;;;5092854;28;20097;-86
2022/05/05 12:29:54;;;;;;;13.88;6.25;;;22.30;63.00;;;;;;5100699;28;20379;-89
2022/05/05 12:32:20;;;;;;;9.13;5.65;;;22.40;62.90;;;;;;5112007;28;20123;-88
2022/05/05 12:34:47;;;;;;;11.90;5.30;;;22.40;62.60;;;;;;5099743;28;20061;-87
2022/05/05 12:37:19;;;;;;;10.77;5.63;;;22.40;62.40;;;;;;5097499;28;20012;-72
2022/05/05 12:40:02;;;;;;;9.88;4.93;;;22.30;62.10;;;;;;5105064;28;20031;-81
2022/05/05 12:42:48;;;;;;;5.53;4.32;;;22.30;62.00;;;;;;5093652;28;20471;-88
2022/05/05 12:45:17;;;;;;;7.45;4.53;;;22.30;62.00;;;;;;5088833;28;20028;-84
2022/05/05 12:47:46;;;;;;;9.23;4.55;;;22.30;61.90;;;;;;5092651;28;20027;-86
2022/05/05 12:50:31;;;;;;;13.10;4.90;;;22.30;61.90;;;;;;5099218;28;20022;-82
2022/05/05 13:01:31;;;;;;;15.38;7.18;;;22.30;61.90;;;;;;5093457;28;20080;-82
2022/05/05 13:04:05;;;;;;;39.70;10.40;;;22.30;61.80;;;;;;5098212;28;20024;-87
2022/05/05 13:06:32;;;;;;;34.13;9.07;;;22.40;62.20;;;;;;5099260;28;20039;-82
2022/05/05 13:08:59;;;;;;;26.67;8.82;;;22.40;62.70;;;;;;5088669;28;20099;-76
2022/05/05 13:11:26;;;;;;;19.70;6.53;;;22.40;62.40;;;;;;5096277;28;20372;-78
2022/05/05 13:13:53;;;;;;;13.43;5.35;;;22.40;61.80;;;;;;5103359;28;20435;-71
2022/05/05 13:16:20;;;;;;;12.18;7.97;;;22.40;61.80;;;;;;5096558;28;20028;-72
2022/05/05 13:18:46;;;;;;;10.65;7.15;;;22.50;61.80;;;;;;5091965;28;20030;-75
2022/05/05 13:21:12;;;;;;;15.18;10.93;;;22.40;61.70;;;;;;5094458;28;20082;-80
2022/05/05 13:23:39;;;;;;;24.77;13.48;;;22.50;62.00;;;;;;5096825;28;20047;-74
2022/05/05 13:26:06;;;;;;;23.00;11.38;;;22.50;61.80;;;;;;5084726;28;20481;-77
2022/05/05 13:28:34;;;;;;;23.33;10.80;;;22.50;62.10;;;;;;5099642;28;20027;-76
2022/05/05 13:31:00;;;;;;;14.23;8.73;;;22.50;62.20;;;;;;5096241;28;20390;-74
2022/05/05 13:33:27;;;;;;;16.15;8.20;;;22.50;62.10;;;;;;5094100;28;20506;-75
2022/05/05 13:35:53;;;;;;;13.50;6.18;;;22.50;62.00;;;;;;5079515;28;20474;-78